createdAt,value
2018-01-05T00:00:05.089Z,8
2018-01-05T00:05:03.357Z,10
2018-01-05T00:10:02.925Z,12
2018-01-05T00:15:03.507Z,8
2018-01-05T00:20:03.212Z,9
2018-01-05T00:25:02.665Z,12
2018-01-05T00:30:03.312Z,7
2018-01-05T00:35:02.862Z,10
2018-01-05T00:40:03.469Z,7
2018-01-05T00:45:03.154Z,8
2018-01-05T00:50:02.815Z,7
2018-01-05T00:55:03.434Z,12
2018-01-05T01:00:02.853Z,10
2018-01-05T01:05:03.325Z,7
2018-01-05T01:10:02.924Z,7
2018-01-05T01:15:03.382Z,9
2018-01-05T01:20:03.417Z,9
2018-01-05T01:25:02.996Z,9
2018-01-05T01:30:02.714Z,13
2018-01-05T01:35:03.288Z,13
2018-01-05T01:40:02.902Z,10
2018-01-05T01:45:03.341Z,9
2018-01-05T01:50:02.832Z,8
2018-01-05T01:55:03.407Z,11
2018-01-05T02:00:02.907Z,10
2018-01-05T02:05:03.412Z,12
2018-01-05T02:10:03.020Z,9
2018-01-05T02:15:02.691Z,9
2018-01-05T02:20:03.276Z,6
2018-01-05T02:25:02.761Z,9
2018-01-05T02:30:03.472Z,6
2018-01-05T02:35:03.220Z,6
2018-01-05T02:40:02.853Z,7
2018-01-05T02:45:03.347Z,6
2018-01-05T02:50:02.822Z,7
2018-01-05T02:55:03.398Z,11
2018-01-05T03:00:02.921Z,7
2018-01-05T03:05:02.739Z,7
2018-01-05T03:10:03.272Z,9
2018-01-05T03:15:02.699Z,5
2018-01-05T03:20:03.293Z,10
2018-01-05T03:25:02.926Z,7
2018-01-05T03:30:03.419Z,13
2018-01-05T03:35:02.857Z,7
2018-01-05T03:40:03.356Z,10
2018-01-05T03:45:02.698Z,7
2018-01-05T03:50:03.203Z,12
2018-01-05T03:55:02.652Z,11
2018-01-05T04:00:03.274Z,8
2018-01-05T04:05:02.734Z,7
2018-01-05T04:10:03.396Z,7
2018-01-05T04:15:02.820Z,8
2018-01-05T04:20:03.230Z,5
2018-01-05T04:25:02.839Z,7
2018-01-05T04:30:03.334Z,7
2018-01-05T04:35:03.014Z,4
2018-01-05T04:40:03.567Z,3
2018-01-05T04:45:03.017Z,5
2018-01-05T04:50:03.449Z,4
2018-01-05T04:55:03.021Z,3
2018-01-05T05:00:02.637Z,2
2018-01-05T05:05:03.233Z,2
2018-01-05T05:10:02.834Z,3
2018-01-05T05:15:03.666Z,3
2018-01-05T05:20:03.599Z,3
2018-01-05T05:25:03.102Z,4
2018-01-05T05:30:03.366Z,8
2018-01-05T05:35:02.802Z,7
2018-01-05T05:40:03.358Z,7
2018-01-05T05:45:02.950Z,2
2018-01-05T05:50:02.774Z,7
2018-01-05T05:55:03.237Z,7
2018-01-05T06:00:02.613Z,7
2018-01-05T06:05:03.125Z,4
2018-01-05T06:10:03.611Z,8
2018-01-05T06:15:03.299Z,4
2018-01-05T06:20:02.894Z,4
2018-01-05T06:25:03.435Z,7
2018-01-05T06:30:03.019Z,3
2018-01-05T06:35:02.696Z,2
2018-01-05T06:40:03.191Z,3
2018-01-05T06:45:02.694Z,5
2018-01-05T06:50:03.318Z,2
2018-01-05T06:55:02.890Z,3
2018-01-05T07:05:02.860Z,2
2018-01-05T07:10:03.357Z,3
2018-01-05T07:15:02.951Z,3
2018-01-05T07:20:03.364Z,2
2018-01-05T07:25:02.816Z,2
2018-01-05T07:30:03.230Z,4
2018-01-05T07:35:02.735Z,4
2018-01-05T07:40:03.655Z,4
2018-01-05T07:45:03.262Z,6
2018-01-05T07:50:02.825Z,0
2018-01-05T07:55:03.350Z,7
2018-01-05T08:00:02.944Z,6
2018-01-05T08:05:03.385Z,5
2018-01-05T08:10:02.944Z,4
2018-01-05T08:15:03.636Z,4
2018-01-05T08:20:03.336Z,4
2018-01-05T08:25:02.783Z,5
2018-01-05T08:30:03.304Z,4
2018-01-05T08:35:02.722Z,4
2018-01-05T08:40:03.222Z,2
2018-01-05T08:45:02.700Z,3
2018-01-05T08:50:03.149Z,4
2018-01-05T08:55:02.788Z,3
2018-01-05T09:00:03.398Z,4
2018-01-05T09:05:03.197Z,4
2018-01-05T09:10:02.851Z,5
2018-01-05T09:15:03.549Z,5
2018-01-05T09:20:03.251Z,5
2018-01-05T09:25:02.721Z,2
2018-01-05T09:30:03.297Z,6
2018-01-05T09:35:02.712Z,3
2018-01-05T09:40:03.213Z,3
2018-01-05T09:45:02.823Z,4
2018-01-05T09:50:03.744Z,4
2018-01-05T09:55:03.508Z,3
2018-01-05T10:00:03.494Z,4
2018-01-05T10:05:03.406Z,7
2018-01-05T10:10:03.096Z,6
2018-01-05T10:15:03.570Z,5
2018-01-05T10:20:03.429Z,7
2018-01-05T10:25:02.936Z,4
2018-01-05T10:30:02.627Z,3
2018-01-05T10:35:03.047Z,4
2018-01-05T10:40:03.141Z,4
2018-01-05T10:45:02.655Z,3
2018-01-05T10:50:03.584Z,3
2018-01-05T10:55:03.548Z,2
2018-01-05T11:00:03.045Z,5
2018-01-05T11:05:03.612Z,3
2018-01-05T11:10:03.530Z,3
2018-01-05T11:15:03.075Z,2
2018-01-05T11:20:03.585Z,2
2018-01-05T11:25:03.499Z,5
2018-01-05T11:30:02.914Z,2
2018-01-05T11:35:03.788Z,2
2018-01-05T11:40:03.569Z,2
2018-01-05T11:45:03.212Z,5
2018-01-05T11:50:02.825Z,5
2018-01-05T11:55:03.500Z,0
2018-01-05T12:00:02.925Z,4
2018-01-05T12:05:03.624Z,3
2018-01-05T12:10:03.245Z,6
2018-01-05T12:15:02.701Z,4
2018-01-05T12:20:03.242Z,3
2018-01-05T12:25:02.817Z,2
2018-01-05T12:30:03.411Z,3
2018-01-05T12:35:02.970Z,3
2018-01-05T12:40:03.532Z,7
2018-01-05T12:45:02.961Z,3
2018-01-05T12:50:03.406Z,4
2018-01-05T12:55:03.047Z,3
2018-01-05T13:00:03.610Z,5
2018-01-05T13:05:03.162Z,4
2018-01-05T13:10:02.682Z,4
2018-01-05T13:15:03.482Z,4
2018-01-05T13:20:03.034Z,4
2018-01-05T13:25:02.674Z,5
2018-01-05T13:30:03.180Z,3
2018-01-05T13:35:02.737Z,4
2018-01-05T13:40:03.232Z,3
2018-01-05T13:45:02.737Z,2
2018-01-05T13:50:03.423Z,3
2018-01-05T13:55:02.922Z,4
2018-01-05T14:00:03.419Z,3
2018-01-05T14:05:02.920Z,2
2018-01-05T14:10:03.527Z,3
2018-01-05T14:15:03.156Z,2
2018-01-05T14:20:02.788Z,3
2018-01-05T14:25:03.254Z,3
2018-01-05T14:30:02.776Z,3
2018-01-05T14:35:03.351Z,4
2018-01-05T14:40:02.912Z,2
2018-01-05T14:45:03.330Z,1
2018-01-05T14:50:02.763Z,3
2018-01-05T14:55:03.656Z,1
2018-01-05T15:00:03.544Z,0
2018-01-05T15:05:03.028Z,0
2018-01-05T15:10:03.042Z,0
2018-01-05T15:15:02.681Z,0
2018-01-05T15:20:03.213Z,2
2018-01-05T15:25:02.772Z,4
2018-01-05T15:30:03.230Z,1
2018-01-05T15:35:02.819Z,3
2018-01-05T15:40:03.351Z,2
2018-01-05T15:45:02.903Z,1
2018-01-05T15:50:03.498Z,2
2018-01-05T15:55:03.128Z,1
2018-01-05T16:00:02.863Z,2
2018-01-05T16:05:02.875Z,3
2018-01-05T16:10:03.529Z,1
2018-01-05T16:15:03.207Z,2
2018-01-05T16:20:02.863Z,2
2018-01-05T16:25:03.291Z,0
2018-01-05T16:30:02.765Z,2
2018-01-05T16:35:03.402Z,3
2018-01-05T16:40:02.942Z,2
2018-01-05T16:45:03.380Z,3
2018-01-05T16:50:02.914Z,3
2018-01-05T16:55:03.517Z,3
2018-01-05T17:00:03.018Z,3
2018-01-05T17:05:03.609Z,2
2018-01-05T17:10:03.267Z,5
2018-01-05T17:15:02.865Z,3
2018-01-05T17:20:03.414Z,6
2018-01-05T17:25:02.867Z,3
2018-01-05T17:30:03.344Z,4
2018-01-05T17:35:02.957Z,2
2018-01-05T17:40:03.567Z,1
2018-01-05T17:45:03.191Z,8
2018-01-05T17:50:02.851Z,7
2018-01-05T17:55:03.434Z,3
2018-01-05T18:00:03.028Z,2
2018-01-05T18:05:03.550Z,4
2018-01-05T18:10:03.236Z,0
2018-01-05T18:15:02.864Z,3
2018-01-05T18:20:03.519Z,3
2018-01-05T18:25:03.183Z,4
2018-01-05T18:30:02.628Z,3
2018-01-05T18:35:03.053Z,8
2018-01-05T18:40:03.527Z,4
2018-01-05T18:45:02.972Z,4
2018-01-05T18:50:03.579Z,4
2018-01-05T18:55:02.975Z,4
2018-01-05T19:00:03.482Z,3
2018-01-05T19:05:02.704Z,3
2018-01-05T19:10:03.346Z,5
2018-01-05T19:15:02.842Z,2
2018-01-05T19:20:03.537Z,1
2018-01-05T19:25:02.980Z,0
2018-01-05T19:30:03.571Z,2
2018-01-05T19:35:03.199Z,2
2018-01-05T19:40:02.757Z,2
2018-01-05T19:45:03.196Z,3
2018-01-05T19:50:02.686Z,3
2018-01-05T19:55:03.344Z,3
2018-01-05T20:00:02.899Z,3
2018-01-05T20:05:03.439Z,3
2018-01-05T20:10:03.106Z,5
2018-01-05T20:15:02.787Z,4
2018-01-05T20:25:03.164Z,6
2018-01-05T20:30:02.653Z,3
2018-01-05T20:35:03.231Z,5
2018-01-05T20:40:02.738Z,6
2018-01-05T20:45:03.179Z,5
2018-01-05T20:50:02.783Z,6
2018-01-05T20:55:03.294Z,4
2018-01-05T21:00:02.865Z,4
2018-01-05T21:05:03.408Z,5
2018-01-05T21:10:02.925Z,6
2018-01-05T21:15:03.571Z,6
2018-01-05T21:20:03.202Z,7
2018-01-05T21:25:02.697Z,4
2018-01-05T21:30:03.207Z,8
2018-01-05T21:35:02.706Z,5
2018-01-05T21:40:03.210Z,3
2018-01-05T21:45:02.876Z,6
2018-01-05T21:50:03.452Z,5
2018-01-05T21:55:03.038Z,2
2018-01-05T22:00:02.699Z,5
2018-01-05T22:05:03.333Z,5
2018-01-05T22:10:02.945Z,4
2018-01-05T22:15:03.439Z,7
2018-01-05T22:20:03.159Z,4
2018-01-05T22:25:02.810Z,5
2018-01-05T22:30:03.473Z,5
2018-01-05T22:40:02.646Z,3
2018-01-05T22:45:03.300Z,4
2018-01-05T22:50:02.783Z,5
2018-01-05T22:55:03.243Z,4
2018-01-05T23:00:02.800Z,3
2018-01-05T23:05:03.415Z,7
2018-01-05T23:10:03.075Z,5
2018-01-05T23:20:03.200Z,3
2018-01-05T23:25:02.738Z,4
2018-01-05T23:30:03.201Z,3
2018-01-05T23:35:02.634Z,2
2018-01-05T23:40:03.111Z,4
2018-01-05T23:45:02.681Z,1
2018-01-05T23:50:03.323Z,3
2018-01-05T23:55:02.761Z,2
